createdAt,value
2018-11-02T00:02:07.734Z,100758.87
2018-11-02T00:04:33.676Z,100760.52
2018-11-02T00:06:59.765Z,100765.33
2018-11-02T00:09:25.731Z,100761.23
2018-11-02T00:11:51.691Z,100767.34
2018-11-02T00:14:17.644Z,100766.03
2018-11-02T00:16:43.646Z,100754.81
2018-11-02T00:19:09.668Z,100744.74
2018-11-02T00:21:35.619Z,100726.33
2018-11-02T00:24:01.580Z,100728.96
2018-11-02T00:26:27.538Z,100743.91
2018-11-02T00:28:53.515Z,100753.13
2018-11-02T00:31:19.563Z,100755.27
2018-11-02T00:33:45.513Z,100759.70
2018-11-02T00:36:11.464Z,100770.59
2018-11-02T00:38:37.598Z,100773.83
2018-11-02T00:41:03.551Z,100781.23
2018-11-02T00:43:29.503Z,100790.31
2018-11-02T00:45:55.467Z,100792.80
2018-11-02T00:48:21.435Z,100782.16
2018-11-02T00:50:47.423Z,100790.38
2018-11-02T00:53:13.463Z,100795.19
2018-11-02T00:55:39.423Z,100787.97
2018-11-02T00:58:05.381Z,100787.91
2018-11-02T01:00:31.331Z,100795.64
2018-11-02T01:02:57.287Z,100797.23
2018-11-02T01:05:23.273Z,100793.28
2018-11-02T01:07:49.314Z,100804.30
2018-11-02T01:10:15.285Z,100811.48
2018-11-02T01:12:41.257Z,100821.39
2018-11-02T01:15:07.216Z,100821.13
2018-11-02T01:17:33.171Z,100827.70
2018-11-02T01:19:59.122Z,100822.70
2018-11-02T01:22:25.069Z,100825.22
2018-11-02T01:24:51.025Z,100834.42
2018-11-02T01:27:16.997Z,100837.88
2018-11-02T01:29:42.952Z,100845.77
2018-11-02T01:32:08.926Z,100845.41
2018-11-02T01:34:34.880Z,100847.42
2018-11-02T01:37:00.865Z,100846.11
2018-11-02T01:39:26.901Z,100845.77
2018-11-02T01:41:52.883Z,100853.17
2018-11-02T01:44:18.837Z,100859.41
2018-11-02T01:46:44.807Z,100865.50
2018-11-02T01:49:10.763Z,100868.25
2018-11-02T01:51:36.736Z,100876.52
2018-11-02T01:54:02.681Z,100882.00
2018-11-02T01:56:28.643Z,100884.25
2018-11-02T01:58:54.629Z,100889.17
2018-11-02T02:01:20.594Z,100898.23
2018-11-02T02:03:46.536Z,100898.72
2018-11-02T02:06:12.644Z,100903.64
2018-11-02T02:08:38.596Z,100907.59
2018-11-02T02:11:04.547Z,100911.65
2018-11-02T02:13:30.608Z,100919.77
2018-11-02T02:15:56.639Z,100925.52
2018-11-02T02:18:22.527Z,100930.44
2018-11-02T02:20:48.475Z,100932.92
2018-11-02T02:23:14.447Z,100933.52
2018-11-02T02:25:40.397Z,100937.73
2018-11-02T02:28:06.396Z,100933.30
2018-11-02T02:30:32.429Z,100939.27
2018-11-02T02:32:58.406Z,100944.65
2018-11-02T02:35:24.342Z,100935.59
2018-11-02T02:37:50.307Z,100936.08
2018-11-02T02:40:16.260Z,100942.16
2018-11-02T02:42:42.277Z,100946.59
2018-11-02T02:45:08.253Z,100952.69
2018-11-02T02:47:34.227Z,100964.03
2018-11-02T02:50:00.203Z,100967.38
2018-11-02T02:52:26.170Z,100977.64
2018-11-02T02:54:52.163Z,100986.58
2018-11-02T02:57:18.116Z,100999.51
2018-11-02T02:59:44.144Z,101006.09
2018-11-02T03:02:10.050Z,101010.48
2018-11-02T03:04:36.013Z,101007.40
2018-11-02T03:07:01.973Z,101010.74
2018-11-02T03:09:28.020Z,101017.32
2018-11-02T03:11:53.972Z,101016.13
2018-11-02T03:14:19.948Z,101016.69
2018-11-02T03:16:45.904Z,101019.31
2018-11-02T03:19:11.856Z,101020.30
2018-11-02T03:21:38.190Z,101020.41
2018-11-02T03:24:04.144Z,101023.91
2018-11-02T03:26:30.100Z,101015.38
2018-11-02T03:28:56.147Z,101021.34
2018-11-02T03:31:22.103Z,101026.98
2018-11-02T03:33:48.048Z,101031.50
2018-11-02T03:36:14.028Z,101028.03
2018-11-02T03:38:39.987Z,101029.95
2018-11-02T03:41:05.954Z,101042.77
2018-11-02T03:43:31.946Z,101043.86
2018-11-02T03:45:57.862Z,101050.44
2018-11-02T03:48:23.824Z,101056.16
2018-11-02T03:50:49.773Z,101069.68
2018-11-02T03:53:15.891Z,101070.02
2018-11-02T03:55:42.326Z,101071.00
2018-11-02T03:58:08.405Z,101076.38
2018-11-02T04:00:34.705Z,101087.38
2018-11-02T04:03:00.665Z,101089.04
2018-11-02T04:05:26.625Z,101089.19
2018-11-02T04:07:52.598Z,101096.25
2018-11-02T04:10:18.570Z,101092.91
2018-11-02T04:12:44.525Z,101090.62
2018-11-02T04:15:10.484Z,101098.17
2018-11-02T04:17:36.427Z,101098.99
2018-11-02T04:20:02.388Z,101109.62
2018-11-02T04:22:28.431Z,101111.66
2018-11-02T04:24:54.373Z,101115.13
2018-11-02T04:27:20.330Z,101126.85
2018-11-02T04:29:46.307Z,101134.52
2018-11-02T04:32:12.264Z,101135.59
2018-11-02T04:34:38.225Z,101136.54
2018-11-02T04:37:04.243Z,101149.09
2018-11-02T04:39:30.199Z,101159.76
2018-11-02T04:41:56.197Z,101163.82
2018-11-02T04:44:22.134Z,101165.02
2018-11-02T04:46:48.078Z,101163.82
2018-11-02T04:49:14.065Z,101168.25
2018-11-02T04:51:40.018Z,101176.84
2018-11-02T04:54:05.982Z,101186.65
2018-11-02T04:56:31.958Z,101194.66
2018-11-02T04:58:57.929Z,101204.83
2018-11-02T05:01:23.872Z,101207.35
2018-11-02T05:03:49.816Z,101220.13
2018-11-02T05:06:15.882Z,101219.64
2018-11-02T05:08:41.783Z,101230.89
2018-11-02T05:11:07.749Z,101231.38
2018-11-02T05:13:33.712Z,101240.71
2018-11-02T05:15:59.664Z,101240.96
2018-11-02T05:18:25.631Z,101247.16
2018-11-02T05:20:51.582Z,101253.02
2018-11-02T05:23:17.540Z,101257.22
2018-11-02T05:25:43.523Z,101267.39
2018-11-02T05:28:09.527Z,101272.28
2018-11-02T05:30:35.505Z,101280.66
2018-11-02T05:33:01.463Z,101279.34
2018-11-02T05:35:27.447Z,101281.48
2018-11-02T05:37:53.461Z,101284.70
2018-11-02T05:40:19.440Z,101292.25
2018-11-02T05:42:45.526Z,101301.95
2018-11-02T05:45:11.539Z,101309.84
2018-11-02T05:47:37.507Z,101313.78
2018-11-02T05:50:03.459Z,101320.81
2018-11-02T05:52:29.453Z,101324.30
2018-11-02T05:54:55.401Z,101323.82
2018-11-02T05:57:21.353Z,101324.30
2018-11-02T05:59:47.336Z,101326.45
2018-11-02T06:02:13.282Z,101329.67
2018-11-02T06:04:39.276Z,101332.65
2018-11-02T06:07:05.237Z,101333.62
2018-11-02T06:09:31.213Z,101338.05
2018-11-02T06:11:57.260Z,101333.27
2018-11-02T06:14:23.292Z,101341.16
2018-11-02T06:16:49.435Z,101345.11
2018-11-02T06:19:15.322Z,101348.68
2018-11-02T06:21:41.265Z,101357.78
2018-11-02T06:24:07.221Z,101356.70
2018-11-02T06:26:33.165Z,101362.07
2018-11-02T06:28:59.183Z,101362.56
2018-11-02T06:31:25.075Z,101370.10
2018-11-02T06:33:51.077Z,101373.43
2018-11-02T06:36:16.964Z,101386.58
2018-11-02T06:38:42.926Z,101394.02
2018-11-02T06:41:08.871Z,101398.80
2018-11-02T06:43:34.891Z,101409.08
2018-11-02T06:46:00.894Z,101416.25
2018-11-02T06:48:27.010Z,101425.94
2018-11-02T06:50:52.998Z,101427.15
2018-11-02T06:53:18.938Z,101442.20
2018-11-02T06:55:44.900Z,101440.06
2018-11-02T06:58:10.869Z,101445.56
2018-11-02T07:00:36.993Z,101440.52
2018-11-02T07:03:02.920Z,101441.13
2018-11-02T07:05:28.879Z,101442.45
2018-11-02T07:07:55.019Z,101441.13
2018-11-02T07:10:20.912Z,101447.22
2018-11-02T07:12:46.889Z,101448.05
2018-11-02T07:15:12.885Z,101454.28
2018-11-02T07:17:38.888Z,101457.75
2018-11-02T07:20:04.903Z,101460.48
2018-11-02T07:22:30.884Z,101467.06
2018-11-02T07:24:56.891Z,101477.48
2018-11-02T07:27:22.837Z,101473.30
2018-11-02T07:29:48.809Z,101470.56
2018-11-02T07:32:14.766Z,101471.64
2018-11-02T07:34:40.732Z,101475.58
2018-11-02T07:37:06.703Z,101483.58
2018-11-02T07:39:32.667Z,101486.45
2018-11-02T07:41:58.632Z,101491.62
2018-11-02T07:44:24.587Z,101486.12
2018-11-02T07:46:50.540Z,101487.09
2018-11-02T07:49:16.568Z,101480.61
2018-11-02T07:51:42.467Z,101489.23
2018-11-02T07:54:08.420Z,101493.17
2018-11-02T07:56:34.536Z,101491.97
2018-11-02T07:59:00.503Z,101490.20
2018-11-02T08:01:26.467Z,101493.56
2018-11-02T08:03:52.425Z,101499.66
2018-11-02T08:06:18.385Z,101500.14
2018-11-02T08:08:44.340Z,101498.82
2018-11-02T08:11:10.317Z,101494.87
2018-11-02T08:13:36.243Z,101494.98
2018-11-02T08:16:02.204Z,101491.63
2018-11-02T08:18:28.168Z,101496.68
2018-11-02T08:20:54.178Z,101504.20
2018-11-02T08:23:20.125Z,101514.38
2018-11-02T08:25:46.074Z,101522.61
2018-11-02T08:28:12.108Z,101527.53
2018-11-02T08:30:38.051Z,101537.09
2018-11-02T08:33:04.004Z,101542.48
2018-11-02T08:35:29.984Z,101548.00
2018-11-02T08:37:56.021Z,101546.55
2018-11-02T08:40:22.001Z,101549.66
2018-11-02T08:42:47.979Z,101550.02
2018-11-02T08:45:13.936Z,101549.56
2018-11-02T08:47:39.911Z,101548.70
2018-11-02T08:50:05.874Z,101547.77
2018-11-02T08:52:31.824Z,101548.59
2018-11-02T08:54:57.784Z,101549.42
2018-11-02T08:57:23.767Z,101555.07
2018-11-02T08:59:49.804Z,101553.52
2018-11-02T09:02:15.681Z,101552.44
2018-11-02T09:04:41.825Z,101557.36
2018-11-02T09:07:07.788Z,101561.18
2018-11-02T09:09:33.806Z,101570.04
2018-11-02T09:11:59.775Z,101574.92
2018-11-02T09:14:25.724Z,101582.72
2018-11-02T09:16:51.748Z,101590.13
2018-11-02T09:19:17.742Z,101590.72
2018-11-02T09:21:43.675Z,101593.00
2018-11-02T09:24:09.651Z,101595.98
2018-11-02T09:26:35.628Z,101604.26
2018-11-02T09:29:01.706Z,101602.36
2018-11-02T09:31:27.670Z,101609.04
2018-11-02T09:33:53.611Z,101610.45
2018-11-02T09:36:19.862Z,101618.35
2018-11-02T09:38:45.814Z,101617.90
2018-11-02T09:41:11.792Z,101622.30
2018-11-02T09:43:37.747Z,101629.61
2018-11-02T09:46:03.723Z,101633.95
2018-11-02T09:48:29.729Z,101636.09
2018-11-02T09:50:55.681Z,101645.07
2018-11-02T09:53:21.699Z,101648.92
2018-11-02T09:55:47.655Z,101656.09
2018-11-02T09:58:13.606Z,101658.47
2018-11-02T10:00:39.680Z,101666.23
2018-11-02T10:03:05.713Z,101665.88
2018-11-02T10:05:31.664Z,101664.21
2018-11-02T10:07:57.667Z,101666.84
2018-11-02T10:10:23.659Z,101666.84
2018-11-02T10:12:49.648Z,101665.15
2018-11-02T10:15:16.326Z,101667.78
2018-11-02T10:17:42.284Z,101670.06
2018-11-02T10:20:08.236Z,101684.89
2018-11-02T10:22:34.397Z,101689.57
2018-11-02T10:25:00.343Z,101681.32
2018-11-02T10:27:26.325Z,101687.42
2018-11-02T10:29:52.308Z,101693.16
2018-11-02T10:32:18.251Z,101696.75
2018-11-02T10:34:44.209Z,101699.28
2018-11-02T10:37:10.192Z,101702.30
2018-11-02T10:39:36.152Z,101695.11
2018-11-02T10:42:02.103Z,101697.74
2018-11-02T10:44:28.233Z,101699.67
2018-11-02T10:46:54.104Z,101704.22
2018-11-02T10:49:20.100Z,101706.70
2018-11-02T10:51:46.103Z,101710.55
2018-11-02T10:54:12.059Z,101709.13
2018-11-02T10:56:38.078Z,101709.23
2018-11-02T10:59:04.042Z,101708.41
2018-11-02T11:01:30.087Z,101714.50
2018-11-02T11:03:56.641Z,101720.00
2018-11-02T11:06:22.615Z,101721.66
2018-11-02T11:08:48.574Z,101723.95
2018-11-02T11:11:14.710Z,101721.77
2018-11-02T11:13:41.044Z,101728.73
2018-11-02T11:16:06.777Z,101728.24
2018-11-02T11:18:32.745Z,101736.53
2018-11-02T11:20:58.707Z,101737.23
2018-11-02T11:23:24.747Z,101739.86
2018-11-02T11:25:50.707Z,101741.18
2018-11-02T11:28:16.887Z,101743.71
2018-11-02T11:30:42.856Z,101742.88
2018-11-02T11:33:08.812Z,101740.73
2018-11-02T11:35:34.780Z,101740.73
2018-11-02T11:38:00.729Z,101742.98
2018-11-02T11:40:26.712Z,101739.03
2018-11-02T11:42:52.681Z,101738.19
2018-11-02T11:45:18.669Z,101738.67
2018-11-02T11:47:44.641Z,101748.02
2018-11-02T11:50:10.642Z,101755.23
2018-11-02T11:52:36.571Z,101747.66
2018-11-02T11:55:02.523Z,101753.28
2018-11-02T11:57:28.460Z,101750.64
2018-11-02T11:59:54.536Z,101754.27
2018-11-02T12:02:20.545Z,101760.59
2018-11-02T12:04:46.535Z,101766.44
2018-11-02T12:07:12.727Z,101770.88
2018-11-02T12:09:38.676Z,101767.66
2018-11-02T12:12:04.659Z,101775.08
2018-11-02T12:14:30.611Z,101767.41
2018-11-02T12:16:56.579Z,101761.66
2018-11-02T12:19:22.532Z,101766.09
2018-11-02T12:21:48.548Z,101766.58
2018-11-02T12:24:14.471Z,101769.20
2018-11-02T12:26:40.442Z,101771.70
2018-11-02T12:29:06.440Z,101770.04
2018-11-02T12:31:32.648Z,101777.94
2018-11-02T12:33:58.633Z,101773.16
2018-11-02T12:36:24.591Z,101772.67
2018-11-02T12:38:50.559Z,101780.09
2018-11-02T12:41:16.510Z,101776.63
2018-11-02T12:43:42.609Z,101780.22
2018-11-02T12:46:08.463Z,101774.95
2018-11-02T12:48:34.550Z,101776.72
2018-11-02T12:51:00.437Z,101780.09
2018-11-02T12:53:26.409Z,101779.73
2018-11-02T12:55:52.387Z,101780.92
2018-11-02T12:58:18.344Z,101778.29
2018-11-02T13:00:44.331Z,101787.98
2018-11-02T13:03:10.288Z,101790.63
2018-11-02T13:05:36.263Z,101795.56
2018-11-02T13:08:02.257Z,101798.29
2018-11-02T13:10:28.220Z,101798.03
2018-11-02T13:12:54.180Z,101798.77
2018-11-02T13:15:20.138Z,101802.11
2018-11-02T13:17:46.092Z,101803.91
2018-11-02T13:20:12.152Z,101808.31
2018-11-02T13:22:38.042Z,101805.94
2018-11-02T13:25:04.035Z,101805.58
2018-11-02T13:27:29.995Z,101804.27
2018-11-02T13:29:55.997Z,101813.83
2018-11-02T13:32:21.893Z,101813.00
2018-11-02T13:34:47.857Z,101815.28
2018-11-02T13:37:13.861Z,101818.65
2018-11-02T13:39:39.774Z,101819.58
2018-11-02T13:42:05.736Z,101825.36
2018-11-02T13:44:31.691Z,101826.35
2018-11-02T13:46:57.664Z,101835.80
2018-11-02T13:49:23.637Z,101830.88
2018-11-02T13:51:49.649Z,101840.96
2018-11-02T13:54:15.641Z,101836.28
2018-11-02T13:56:41.611Z,101842.15
2018-11-02T13:59:07.731Z,101845.04
2018-11-02T14:01:33.789Z,101842.15
2018-11-02T14:03:59.734Z,101848.00
2018-11-02T14:06:25.704Z,101846.33
2018-11-02T14:08:51.654Z,101848.22
2018-11-02T14:11:17.627Z,101857.34
2018-11-02T14:13:43.604Z,101860.07
2018-11-02T14:16:09.597Z,101861.38
2018-11-02T14:18:35.682Z,101865.81
2018-11-02T14:21:03.528Z,101871.56
2018-11-02T14:23:29.559Z,101871.08
2018-11-02T14:25:55.472Z,101867.61
2018-11-02T14:28:21.433Z,101879.08
2018-11-02T14:30:47.589Z,101883.86
2018-11-02T14:33:13.602Z,101889.03
2018-11-02T14:35:39.622Z,101893.46
2018-11-02T14:38:05.675Z,101901.36
2018-11-02T14:40:31.768Z,101911.50
2018-11-02T14:42:57.729Z,101914.63
2018-11-02T14:45:23.768Z,101918.22
2018-11-02T14:47:49.721Z,101927.91
2018-11-02T14:50:15.700Z,101928.84
2018-11-02T14:52:41.665Z,101929.32
2018-11-02T14:55:07.660Z,101930.99
2018-11-02T14:57:33.609Z,101942.01
2018-11-02T14:59:59.562Z,101946.44
2018-11-02T15:02:25.545Z,101949.55
2018-11-02T15:04:51.618Z,101952.19
2018-11-02T15:07:17.590Z,101953.02
2018-11-02T15:09:43.609Z,101952.19
2018-11-02T15:12:09.516Z,101960.44
2018-11-02T15:14:35.471Z,101962.71
2018-11-02T15:17:01.528Z,101960.08
2018-11-02T15:19:27.695Z,101963.06
2018-11-02T15:21:53.663Z,101957.33
2018-11-02T15:24:19.609Z,101957.92
2018-11-02T15:26:45.619Z,101959.25
2018-11-02T15:29:11.569Z,101960.30
2018-11-02T15:31:37.534Z,101962.93
2018-11-02T15:34:03.498Z,101967.72
2018-11-02T15:36:29.460Z,101971.28
2018-11-02T15:38:55.439Z,101974.78
2018-11-02T15:41:21.383Z,101979.17
2018-11-02T15:43:47.351Z,101983.61
2018-11-02T15:46:13.314Z,101983.25
2018-11-02T15:48:39.347Z,101980.14
2018-11-02T15:51:05.318Z,101981.06
2018-11-02T15:53:31.398Z,101981.19
2018-11-02T15:55:57.280Z,101977.59
2018-11-02T15:58:23.316Z,101974.88
2018-11-02T16:00:49.313Z,101974.03
2018-11-02T16:03:15.352Z,101972.72
2018-11-02T16:05:41.487Z,101971.85
2018-11-02T16:08:07.443Z,101973.56
2018-11-02T16:10:33.399Z,101977.12
2018-11-02T16:12:59.372Z,101980.70
2018-11-02T16:15:25.396Z,101990.41
2018-11-02T16:17:51.354Z,101990.98
2018-11-02T16:20:17.315Z,101998.66
2018-11-02T16:22:43.291Z,101996.41
2018-11-02T16:25:09.275Z,102002.61
2018-11-02T16:27:35.212Z,102009.66
2018-11-02T16:30:01.246Z,102010.23
2018-11-02T16:32:27.191Z,102018.62
2018-11-02T16:34:53.204Z,102019.58
2018-11-02T16:37:19.171Z,102018.83
2018-11-02T16:39:45.129Z,102026.34
2018-11-02T16:42:11.399Z,102029.36
2018-11-02T16:44:37.490Z,102031.61
2018-11-02T16:47:03.404Z,102036.16
2018-11-02T16:49:29.371Z,102043.45
2018-11-02T16:51:55.342Z,102044.77
2018-11-02T16:54:21.431Z,102050.03
2018-11-02T16:56:47.273Z,102056.16
2018-11-02T16:59:13.313Z,102059.51
2018-11-02T17:01:39.414Z,102061.88
2018-11-02T17:04:05.414Z,102063.19
2018-11-02T17:06:31.325Z,102071.20
2018-11-02T17:08:57.345Z,102068.67
2018-11-02T17:11:23.413Z,102080.99
2018-11-02T17:13:49.352Z,102086.26
2018-11-02T17:16:15.304Z,102095.08
2018-11-02T17:18:41.319Z,102104.41
2018-11-02T17:21:07.300Z,102109.20
2018-11-02T17:23:33.266Z,102112.79
2018-11-02T17:25:59.248Z,102116.83
2018-11-02T17:28:25.231Z,102117.19
2018-11-02T17:30:51.264Z,102124.16
2018-11-02T17:33:17.381Z,102123.77
2018-11-02T17:35:43.433Z,102130.61
2018-11-02T17:38:09.424Z,102135.31
2018-11-02T17:40:35.377Z,102136.36
2018-11-02T17:43:01.358Z,102133.36
2018-11-02T17:45:27.313Z,102138.23
2018-11-02T17:47:53.379Z,102148.41
2018-11-02T17:50:19.381Z,102154.23
2018-11-02T17:52:45.283Z,102162.97
2018-11-02T17:55:11.375Z,102167.04
2018-11-02T17:57:37.393Z,102166.08
2018-11-02T18:00:03.466Z,102172.28
2018-11-02T18:02:29.424Z,102169.83
2018-11-02T18:04:55.483Z,102161.21
2018-11-02T18:07:21.568Z,102164.56
2018-11-02T18:09:47.561Z,102170.09
2018-11-02T18:12:13.557Z,102176.05
2018-11-02T18:14:39.656Z,102175.41
2018-11-02T18:17:05.619Z,102176.81
2018-11-02T18:19:31.613Z,102180.77
2018-11-02T18:21:57.599Z,102189.61
2018-11-02T18:24:23.645Z,102192.61
2018-11-02T18:26:49.797Z,102194.40
2018-11-02T18:29:15.863Z,102191.30
2018-11-02T18:31:42.738Z,102193.09
2018-11-02T18:34:08.744Z,102200.70
2018-11-02T18:36:34.711Z,102202.38
2018-11-02T18:39:00.685Z,102201.62
2018-11-02T18:41:26.657Z,102206.53
2018-11-02T18:43:52.667Z,102207.94
2018-11-02T18:46:18.644Z,102212.36
2018-11-02T18:48:44.632Z,102227.59
2018-11-02T18:51:10.649Z,102225.99
2018-11-02T18:53:36.681Z,102237.00
2018-11-02T18:56:02.692Z,102233.61
2018-11-02T18:58:28.740Z,102239.34
2018-11-02T19:00:54.761Z,102246.38
2018-11-02T19:03:20.804Z,102253.06
2018-11-02T19:05:46.899Z,102259.73
2018-11-02T19:08:12.768Z,102263.68
2018-11-02T19:10:38.735Z,102270.81
2018-11-02T19:13:04.837Z,102264.80
2018-11-02T19:15:30.768Z,102269.89
2018-11-02T19:17:56.753Z,102272.33
2018-11-02T19:20:22.737Z,102268.10
2018-11-02T19:22:48.767Z,102272.52
2018-11-02T19:25:14.681Z,102274.28
2018-11-02T19:27:40.740Z,102278.83
2018-11-02T19:30:06.639Z,102286.72
2018-11-02T19:32:32.763Z,102287.75
2018-11-02T19:34:58.994Z,102287.84
2018-11-02T19:37:24.656Z,102292.73
2018-11-02T19:39:50.614Z,102290.94
2018-11-02T19:42:16.589Z,102286.44
2018-11-02T19:44:42.580Z,102298.36
2018-11-02T19:47:08.591Z,102296.20
2018-11-02T19:49:34.638Z,102301.08
2018-11-02T19:52:00.597Z,102302.22
2018-11-02T19:54:26.724Z,102301.47
2018-11-02T19:56:52.680Z,102304.58
2018-11-02T19:59:18.633Z,102304.17
2018-11-02T20:01:44.650Z,102307.77
2018-11-02T20:04:10.662Z,102305.77
2018-11-02T20:06:36.644Z,102307.65
2018-11-02T20:09:02.640Z,102306.22
2018-11-02T20:11:28.685Z,102313.66
2018-11-02T20:13:54.704Z,102318.45
2018-11-02T20:16:20.656Z,102329.84
2018-11-02T20:18:46.609Z,102328.58
2018-11-02T20:21:12.676Z,102323.51
2018-11-02T20:23:38.670Z,102326.98
2018-11-02T20:26:04.705Z,102326.69
2018-11-02T20:28:30.576Z,102325.37
2018-11-02T20:30:56.606Z,102326.77
2018-11-02T20:33:22.569Z,102326.77
2018-11-02T20:35:48.567Z,102331.12
2018-11-02T20:38:14.547Z,102329.04
2018-11-02T20:40:40.545Z,102332.59
2018-11-02T20:43:06.542Z,102337.02
2018-11-02T20:45:32.507Z,102339.28
2018-11-02T20:47:58.471Z,102331.75
2018-11-02T20:50:24.411Z,102327.44
2018-11-02T20:52:50.469Z,102330.07
2018-11-02T20:55:16.578Z,102325.84
2018-11-02T20:57:42.552Z,102328.08
2018-11-02T21:00:08.533Z,102333.34
2018-11-02T21:02:34.598Z,102336.84
2018-11-02T21:05:00.538Z,102330.42
2018-11-02T21:07:26.519Z,102334.48
2018-11-02T21:09:52.535Z,102338.87
2018-11-02T21:12:18.507Z,102337.47
2018-11-02T21:14:44.526Z,102338.42
2018-11-02T21:17:10.494Z,102353.81
2018-11-02T21:19:36.586Z,102357.39
2018-11-02T21:22:02.723Z,102359.06
2018-11-02T21:24:28.634Z,102356.55
2018-11-02T21:26:54.600Z,102360.57
2018-11-02T21:29:20.560Z,102371.17
2018-11-02T21:31:46.611Z,102372.48
2018-11-02T21:34:12.595Z,102374.20
2018-11-02T21:36:38.578Z,102370.44
2018-11-02T21:39:04.568Z,102370.80
2018-11-02T21:41:30.541Z,102366.78
2018-11-02T21:43:56.657Z,102365.73
2018-11-02T21:46:22.625Z,102361.31
2018-11-02T21:48:48.612Z,102360.84
2018-11-02T21:51:14.567Z,102353.62
2018-11-02T21:53:40.571Z,102364.16
2018-11-02T21:56:06.523Z,102357.29
2018-11-02T21:58:32.605Z,102367.52
2018-11-02T22:00:58.476Z,102361.50
2018-11-02T22:03:24.476Z,102368.08
2018-11-02T22:05:50.567Z,102360.73
2018-11-02T22:08:16.590Z,102358.00
2018-11-02T22:10:42.652Z,102363.37
2018-11-02T22:13:08.657Z,102366.55
2018-11-02T22:15:34.728Z,102365.70
2018-11-02T22:18:00.703Z,102372.64
2018-11-02T22:20:26.648Z,102375.83
2018-11-02T22:22:52.613Z,102383.35
2018-11-02T22:25:18.568Z,102387.77
2018-11-02T22:27:44.537Z,102390.00
2018-11-02T22:30:10.608Z,102387.37
2018-11-02T22:32:36.576Z,102390.95
2018-11-02T22:35:02.544Z,102400.23
2018-11-02T22:37:28.529Z,102404.09
2018-11-02T22:39:54.525Z,102404.64
2018-11-02T22:42:20.540Z,102402.49
2018-11-02T22:44:46.503Z,102405.59
2018-11-02T22:47:12.475Z,102413.84
2018-11-02T22:49:38.444Z,102411.77
2018-11-02T22:52:04.416Z,102404.91
2018-11-02T22:54:30.402Z,102405.85
2018-11-02T22:56:56.358Z,102403.98
2018-11-02T22:59:22.318Z,102410.27
2018-11-02T23:01:48.305Z,102408.95
2018-11-02T23:04:14.296Z,102403.59
2018-11-02T23:06:40.312Z,102405.02
2018-11-02T23:09:06.310Z,102406.88
2018-11-02T23:11:32.569Z,102397.38
2018-11-02T23:13:58.520Z,102396.44
2018-11-02T23:16:24.517Z,102393.88
2018-11-02T23:18:50.468Z,102403.41
2018-11-02T23:21:16.505Z,102404.80
2018-11-02T23:23:42.473Z,102405.71
2018-11-02T23:26:08.455Z,102407.50
2018-11-02T23:28:34.431Z,102416.23
2018-11-02T23:31:00.493Z,102415.38
2018-11-02T23:33:26.435Z,102409.36
2018-11-02T23:35:52.591Z,102407.69
2018-11-02T23:38:18.559Z,102407.20
2018-11-02T23:40:44.518Z,102400.27
2018-11-02T23:43:10.489Z,102401.19
2018-11-02T23:45:36.531Z,102402.42
2018-11-02T23:48:02.588Z,102401.77
2018-11-02T23:50:28.556Z,102399.87
2018-11-02T23:52:54.706Z,102404.47
2018-11-02T23:55:20.654Z,102407.17
2018-11-02T23:57:46.710Z,102405.70
